createdAt,value
2017-08-13T01:54:34.142Z,88.80
2017-08-13T02:01:11.963Z,88.60
2017-08-13T02:04:14.895Z,88.20
2017-08-13T05:08:59.182Z,86.70
2017-08-13T05:11:26.667Z,86.20
2017-08-13T05:13:54.093Z,85.40
2017-08-13T05:16:21.530Z,85.20
2017-08-13T05:18:49.738Z,85.20
2017-08-13T05:21:17.177Z,85.20
2017-08-13T05:23:44.618Z,85.00
2017-08-13T05:26:12.822Z,84.70
2017-08-13T05:28:40.289Z,84.60
2017-08-13T05:31:07.733Z,83.90
2017-08-13T05:33:35.174Z,83.90
2017-08-13T05:36:02.615Z,83.20
2017-08-13T05:38:30.831Z,83.40
2017-08-13T05:40:58.279Z,83.00
2017-08-13T05:43:25.727Z,82.30
2017-08-13T05:45:53.170Z,81.70
2017-08-13T05:48:21.374Z,81.60
2017-08-13T05:50:48.818Z,81.50
2017-08-13T05:53:16.258Z,81.20
2017-08-13T05:55:44.522Z,79.80
2017-08-13T05:58:11.959Z,79.70
2017-08-13T06:00:39.389Z,79.70
2017-08-13T06:03:06.856Z,78.90
2017-08-13T06:05:34.286Z,77.60
2017-08-13T06:08:01.718Z,75.90
2017-08-13T06:10:29.927Z,74.40
2017-08-13T06:12:57.362Z,73.80
2017-08-13T06:15:25.579Z,70.30
2017-08-13T06:17:53.033Z,70.20
2017-08-13T06:20:20.499Z,68.20
2017-08-13T06:22:47.935Z,67.80
2017-08-13T06:25:15.366Z,66.40
2017-08-13T06:27:43.577Z,66.10
2017-08-13T06:30:11.010Z,66.00
2017-08-13T06:32:39.210Z,65.70
2017-08-13T06:35:06.647Z,65.50
2017-08-13T06:37:34.093Z,64.90
2017-08-13T06:40:02.301Z,62.50
2017-08-13T06:42:29.734Z,62.50
2017-08-13T06:44:57.948Z,61.40
2017-08-13T06:47:25.410Z,61.30
2017-08-13T06:49:52.846Z,61.60
2017-08-13T06:52:20.278Z,60.30
2017-08-13T06:54:48.481Z,58.50
2017-08-13T06:57:15.910Z,59.00
2017-08-13T06:59:44.134Z,56.60
2017-08-13T07:02:11.563Z,56.70
2017-08-13T07:04:38.986Z,55.00
2017-08-13T07:07:06.435Z,54.00
2017-08-13T07:09:33.864Z,54.00
2017-08-13T07:12:01.323Z,53.30
2017-08-13T07:14:28.754Z,52.80
2017-08-13T07:16:56.210Z,52.70
2017-08-13T07:19:23.657Z,52.20
2017-08-13T07:21:51.846Z,50.90
2017-08-13T07:24:19.287Z,50.90
2017-08-13T07:26:47.483Z,49.50
2017-08-13T07:29:14.921Z,49.40
2017-08-13T07:31:43.180Z,49.00
2017-08-13T07:34:10.614Z,49.00
2017-08-13T07:36:38.058Z,48.00
2017-08-13T07:39:05.494Z,49.30
2017-08-13T07:41:32.936Z,48.10
2017-08-13T07:44:00.362Z,47.30
2017-08-13T07:46:27.794Z,46.80
2017-08-13T07:48:55.222Z,46.50
2017-08-13T07:51:22.654Z,46.60
2017-08-13T07:53:50.866Z,47.60
2017-08-13T07:56:18.318Z,47.60
2017-08-13T07:58:45.750Z,46.80
2017-08-13T08:01:13.939Z,49.30
2017-08-13T08:03:41.370Z,49.30
2017-08-13T08:06:08.804Z,48.70
2017-08-13T08:08:36.242Z,49.10
2017-08-13T08:11:03.710Z,48.40
2017-08-13T08:13:31.146Z,46.80
2017-08-13T08:15:58.582Z,46.60
2017-08-13T08:18:26.019Z,45.90
2017-08-13T08:20:54.211Z,45.00
2017-08-13T08:23:21.642Z,45.00
2017-08-13T08:25:49.082Z,43.80
2017-08-13T08:28:16.518Z,43.30
2017-08-13T08:30:43.947Z,43.80
2017-08-13T08:33:11.371Z,45.20
2017-08-13T08:35:38.801Z,46.30
2017-08-13T08:38:06.230Z,46.90
2017-08-13T08:40:33.685Z,47.10
2017-08-13T08:43:01.110Z,47.10
2017-08-13T08:45:29.306Z,50.00
2017-08-13T08:47:56.742Z,49.40
2017-08-13T08:50:24.185Z,49.90
2017-08-13T08:52:52.425Z,51.60
2017-08-13T08:55:19.861Z,51.50
2017-08-13T08:57:47.327Z,52.10
2017-08-13T09:00:14.778Z,52.50
2017-08-13T09:02:42.245Z,52.90
2017-08-13T09:05:09.762Z,53.60
2017-08-13T09:07:37.256Z,53.70
2017-08-13T09:10:04.724Z,54.00
2017-08-13T09:12:32.166Z,53.90
2017-08-13T09:14:59.619Z,53.80
2017-08-13T09:17:27.154Z,53.40
2017-08-13T09:19:54.897Z,53.90
2017-08-13T09:22:22.376Z,55.70
2017-08-13T09:24:49.867Z,56.10
2017-08-13T09:27:17.408Z,55.80
2017-08-13T09:29:44.834Z,55.50
2017-08-13T09:32:12.330Z,55.00
2017-08-13T09:34:39.774Z,55.20
2017-08-13T09:37:07.287Z,54.40
2017-08-13T09:39:35.073Z,54.40
2017-08-13T09:42:02.542Z,55.90
2017-08-13T09:44:29.988Z,55.90
2017-08-13T09:46:57.466Z,55.30
2017-08-13T09:49:24.897Z,54.50
2017-08-13T09:51:52.323Z,54.80
2017-08-13T09:54:19.775Z,54.00
2017-08-13T09:56:47.251Z,53.90
2017-08-13T09:59:14.682Z,54.30
2017-08-13T10:01:42.119Z,53.80
2017-08-13T10:04:10.350Z,53.40
2017-08-13T10:06:37.822Z,53.30
2017-08-13T10:09:05.263Z,53.20
2017-08-13T10:11:32.699Z,52.70
2017-08-13T10:14:00.134Z,52.60
2017-08-13T10:16:27.582Z,51.80
2017-08-13T10:18:55.054Z,51.40
2017-08-13T10:21:22.457Z,51.10
2017-08-13T10:23:49.945Z,52.10
2017-08-13T10:26:17.367Z,51.50
2017-08-13T10:28:44.796Z,51.10
2017-08-13T10:31:12.226Z,51.10
2017-08-13T10:33:39.670Z,50.40
2017-08-13T10:36:07.092Z,50.60
2017-08-13T10:38:34.525Z,48.30
2017-08-13T10:41:01.987Z,48.50
2017-08-13T10:43:30.161Z,47.30
2017-08-13T10:45:57.595Z,47.30
2017-08-13T10:48:25.815Z,46.20
2017-08-13T10:50:53.242Z,46.10
2017-08-13T10:53:20.674Z,46.60
2017-08-13T10:55:48.112Z,45.50
2017-08-13T10:58:15.548Z,44.50
2017-08-13T11:00:42.971Z,45.60
2017-08-13T11:03:11.166Z,45.40
2017-08-13T11:05:38.618Z,45.40
2017-08-13T11:08:06.051Z,45.40
2017-08-13T11:10:34.246Z,45.40
2017-08-13T11:13:01.679Z,45.30
2017-08-13T11:15:29.871Z,46.20
2017-08-13T11:17:58.072Z,46.60
2017-08-13T11:20:25.494Z,46.60
2017-08-13T11:22:53.698Z,47.40
2017-08-13T11:25:21.122Z,47.40
2017-08-13T11:27:49.373Z,47.50
2017-08-13T11:30:16.815Z,47.50
2017-08-13T11:32:44.243Z,47.30
2017-08-13T11:35:11.673Z,46.80
2017-08-13T11:37:39.865Z,46.00
2017-08-13T11:40:07.319Z,46.00
2017-08-13T11:42:35.517Z,45.20
2017-08-13T11:45:03.003Z,45.20
2017-08-13T11:47:30.422Z,44.10
2017-08-13T11:49:57.850Z,45.40
2017-08-13T11:52:25.280Z,45.10
2017-08-13T11:54:52.707Z,44.30
2017-08-13T11:57:20.138Z,45.60
2017-08-13T11:59:48.355Z,44.20
2017-08-13T12:02:15.876Z,44.20
2017-08-13T12:04:44.066Z,44.90
2017-08-13T12:07:11.494Z,44.90
2017-08-13T12:09:39.689Z,43.20
2017-08-13T12:12:07.114Z,43.20
2017-08-13T12:14:34.554Z,42.40
2017-08-13T12:17:01.986Z,41.50
2017-08-13T12:19:29.441Z,41.60
2017-08-13T12:21:56.855Z,40.70
2017-08-13T12:24:25.057Z,41.50
2017-08-13T12:26:52.486Z,41.50
2017-08-13T12:29:19.914Z,41.60
2017-08-13T12:31:47.358Z,42.70
2017-08-13T12:34:14.802Z,44.80
2017-08-13T12:36:42.226Z,45.80
2017-08-13T12:39:10.427Z,46.00
2017-08-13T12:41:37.854Z,46.00
2017-08-13T12:44:06.058Z,46.80
2017-08-13T12:46:33.546Z,46.70
2017-08-13T12:49:00.979Z,47.20
2017-08-13T12:51:28.410Z,46.60
2017-08-13T12:53:56.610Z,45.50
2017-08-13T12:56:24.042Z,45.60
2017-08-13T12:58:52.246Z,45.20
2017-08-13T13:01:19.682Z,45.20
2017-08-13T13:03:47.902Z,46.80
2017-08-13T13:06:15.395Z,46.80
2017-08-13T13:08:44.317Z,48.30
2017-08-13T13:11:11.750Z,47.70
2017-08-13T13:13:39.959Z,48.10
2017-08-13T13:16:07.400Z,47.50
2017-08-13T13:18:35.311Z,46.90
2017-08-13T13:21:02.748Z,47.40
2017-08-13T13:23:30.178Z,47.10
2017-08-13T13:25:58.390Z,46.50
2017-08-13T13:28:25.836Z,46.90
2017-08-13T13:30:53.504Z,48.30
2017-08-13T13:33:20.947Z,47.40
2017-08-13T13:35:49.194Z,49.90
2017-08-13T13:38:16.618Z,49.90
2017-08-13T13:40:44.617Z,50.80
2017-08-13T13:43:12.134Z,49.70
2017-08-13T13:45:39.578Z,50.40
2017-08-13T13:48:07.802Z,50.20
2017-08-13T13:50:35.238Z,49.60
2017-08-13T13:53:02.677Z,50.10
2017-08-13T13:55:30.118Z,50.80
2017-08-13T13:57:58.328Z,50.50
2017-08-13T14:00:25.770Z,50.50
2017-08-13T14:02:53.220Z,50.70
2017-08-13T14:05:20.659Z,51.60
2017-08-13T14:07:48.114Z,51.90
2017-08-13T14:10:15.556Z,51.60
2017-08-13T14:12:43.002Z,52.80
2017-08-13T14:15:10.492Z,53.00
2017-08-13T14:17:37.929Z,52.90
2017-08-13T14:20:05.370Z,53.30
2017-08-13T14:22:32.859Z,53.40
2017-08-13T14:25:00.302Z,54.10
2017-08-13T14:27:27.750Z,54.50
2017-08-13T14:29:55.207Z,54.20
2017-08-13T14:32:22.628Z,54.00
2017-08-13T14:34:50.158Z,53.90
2017-08-13T14:37:17.682Z,53.20
2017-08-13T14:39:45.222Z,53.80
2017-08-13T14:42:12.710Z,53.80
2017-08-13T14:44:40.166Z,53.90
2017-08-13T14:47:07.710Z,54.20
2017-08-13T14:49:35.205Z,54.80
2017-08-13T14:52:02.672Z,54.20
2017-08-13T14:54:30.115Z,52.70
2017-08-13T14:56:57.556Z,52.80
2017-08-13T14:59:24.994Z,52.90
2017-08-13T15:01:52.426Z,52.70
2017-08-13T15:04:19.858Z,53.40
2017-08-13T15:06:48.062Z,51.90
2017-08-13T15:09:15.511Z,51.90
2017-08-13T15:11:43.715Z,53.40
2017-08-13T15:14:11.146Z,53.40
2017-08-13T15:16:38.612Z,53.00
2017-08-13T15:19:06.046Z,53.10
2017-08-13T15:21:34.242Z,51.70
2017-08-13T15:24:01.708Z,51.70
2017-08-13T15:26:29.186Z,53.20
2017-08-13T15:28:56.617Z,54.50
2017-08-13T15:31:24.054Z,54.70
2017-08-13T15:33:51.490Z,55.50
2017-08-13T15:36:18.940Z,56.40
2017-08-13T15:38:46.359Z,55.70
2017-08-13T15:41:13.798Z,55.90
2017-08-13T15:43:41.989Z,55.70
2017-08-13T15:46:09.421Z,55.70
2017-08-13T15:48:37.625Z,56.60
2017-08-13T15:51:05.057Z,56.60
2017-08-13T15:53:33.278Z,56.30
2017-08-13T15:56:00.710Z,56.30
2017-08-13T15:58:28.237Z,56.00
2017-08-13T16:00:55.723Z,55.40
2017-08-13T16:03:23.204Z,55.80
2017-08-13T16:05:50.684Z,55.80
2017-08-13T16:08:18.122Z,55.80
2017-08-13T16:10:45.559Z,56.50
2017-08-13T16:13:13.002Z,56.70
2017-08-13T16:15:41.363Z,56.20
2017-08-13T16:18:08.872Z,56.10
2017-08-13T16:20:36.342Z,56.70
2017-08-13T16:23:03.891Z,56.80
2017-08-13T16:25:31.363Z,56.40
2017-08-13T16:27:58.797Z,56.90
2017-08-13T16:30:26.258Z,56.60
2017-08-13T16:32:53.783Z,57.20
2017-08-13T16:35:21.344Z,56.70
2017-08-13T16:37:48.799Z,57.00
2017-08-13T16:40:16.260Z,56.90
2017-08-13T16:42:43.693Z,57.00
2017-08-13T16:45:11.164Z,56.50
2017-08-13T16:47:38.726Z,56.70
2017-08-13T16:50:06.182Z,56.00
2017-08-13T16:52:33.615Z,56.90
2017-08-13T16:55:01.161Z,57.20
2017-08-13T16:57:28.670Z,57.10
2017-08-13T16:59:56.127Z,56.90
2017-08-13T17:02:23.554Z,57.50
2017-08-13T17:04:51.000Z,57.00
2017-08-13T17:07:18.465Z,57.80
2017-08-13T17:09:45.899Z,57.50
2017-08-13T17:12:13.376Z,57.30
2017-08-13T17:14:40.822Z,57.70
2017-08-13T17:17:08.310Z,57.80
2017-08-13T17:19:36.535Z,58.00
2017-08-13T17:22:03.983Z,58.00
2017-08-13T17:24:31.440Z,58.40
2017-08-13T17:26:58.907Z,58.40
2017-08-13T17:29:26.350Z,58.90
2017-08-13T17:31:53.801Z,59.20
2017-08-13T17:34:21.336Z,59.50
2017-08-13T17:36:49.671Z,58.90
2017-08-13T17:39:17.194Z,58.90
2017-08-13T17:41:44.667Z,59.60
2017-08-13T17:44:12.123Z,58.90
2017-08-13T17:46:39.610Z,59.10
2017-08-13T17:49:07.064Z,59.00
2017-08-13T17:51:34.501Z,59.30
2017-08-13T17:54:01.983Z,59.70
2017-08-13T17:56:29.439Z,60.00
2017-08-13T17:58:56.880Z,60.70
2017-08-13T18:01:24.344Z,60.90
2017-08-13T18:03:51.808Z,61.30
2017-08-13T18:06:19.294Z,61.60
2017-08-13T18:08:46.840Z,62.10
2017-08-13T18:11:14.341Z,62.40
2017-08-13T18:13:42.593Z,63.10
2017-08-13T18:16:10.042Z,63.00
2017-08-13T18:18:38.415Z,63.60
2017-08-13T18:21:05.933Z,64.60
2017-08-13T18:23:33.453Z,64.30
2017-08-13T18:26:01.216Z,65.40
2017-08-13T18:28:28.722Z,65.90
2017-08-13T18:30:56.321Z,66.70
2017-08-13T18:33:24.083Z,67.40
2017-08-13T18:35:51.601Z,67.80
2017-08-13T18:38:19.116Z,68.60
2017-08-13T18:40:46.850Z,69.00
2017-08-13T18:43:14.422Z,69.70
2017-08-13T18:45:42.133Z,70.10
2017-08-13T18:48:21.396Z,71.10
2017-08-13T18:50:52.859Z,71.10
2017-08-13T18:53:20.649Z,71.80
2017-08-13T18:55:48.101Z,72.30
2017-08-13T18:58:15.531Z,72.80
2017-08-13T19:00:42.958Z,73.30
2017-08-13T19:03:11.186Z,74.60
2017-08-13T19:05:38.614Z,74.60
2017-08-13T19:08:06.052Z,74.50
2017-08-13T19:10:33.487Z,75.10
2017-08-13T19:13:00.922Z,75.10
2017-08-13T19:15:28.349Z,75.60
2017-08-13T19:17:55.874Z,76.00
2017-08-13T19:20:23.306Z,76.10
2017-08-13T19:22:50.742Z,76.40
2017-08-13T19:25:18.174Z,76.70
2017-08-13T19:27:45.611Z,76.90
2017-08-13T19:30:13.836Z,78.10
2017-08-13T19:32:41.266Z,77.90
2017-08-13T19:35:08.697Z,78.30
2017-08-13T19:37:36.907Z,79.20
2017-08-13T19:40:04.590Z,79.20
2017-08-13T19:42:32.167Z,80.10
2017-08-13T19:45:01.368Z,80.50
2017-08-13T19:47:33.167Z,80.60
2017-08-13T19:50:04.160Z,81.30
2017-08-13T19:52:32.159Z,81.30
2017-08-13T19:54:59.581Z,81.50
2017-08-13T19:57:27.012Z,82.20
2017-08-13T19:59:54.446Z,82.40
2017-08-13T20:02:21.878Z,82.50
2017-08-13T20:04:49.336Z,82.70
2017-08-13T20:07:16.769Z,82.80
2017-08-13T20:09:44.214Z,83.20
2017-08-13T20:12:11.698Z,83.20
2017-08-13T20:14:39.137Z,83.40
2017-08-13T20:17:06.577Z,83.20
2017-08-13T20:19:34.018Z,83.50
2017-08-13T20:22:01.450Z,83.60
2017-08-13T20:24:29.649Z,84.60
2017-08-13T20:26:57.109Z,84.60
2017-08-13T20:29:24.542Z,84.40
2017-08-13T20:31:52.747Z,84.50
2017-08-13T20:34:20.186Z,84.40
2017-08-13T20:36:48.385Z,84.40
2017-08-13T20:39:15.827Z,84.40
2017-08-13T20:41:43.270Z,84.60
2017-08-13T20:44:11.490Z,84.80
2017-08-13T20:46:38.940Z,84.70
2017-08-13T20:49:06.387Z,84.70
2017-08-13T20:51:33.823Z,84.70
2017-08-13T20:54:03.425Z,85.00
2017-08-13T20:56:44.402Z,85.30
2017-08-13T20:59:15.529Z,84.80
2017-08-13T21:01:44.260Z,84.60
2017-08-13T21:04:14.125Z,84.60
2017-08-13T21:06:42.251Z,85.00
2017-08-13T21:09:10.427Z,85.20
2017-08-13T21:11:38.240Z,85.20
2017-08-13T21:14:06.551Z,85.80
2017-08-13T21:16:35.178Z,86.20
2017-08-13T21:19:21.343Z,86.50
2017-08-13T21:21:50.698Z,86.40
2017-08-13T21:24:23.461Z,86.60
2017-08-13T21:26:52.373Z,87.40
2017-08-13T21:29:22.520Z,86.90
2017-08-13T21:32:01.070Z,87.00
2017-08-13T21:34:33.950Z,87.60
2017-08-13T21:37:06.329Z,88.20
2017-08-13T21:39:35.468Z,88.00
2017-08-13T21:42:07.588Z,88.30
2017-08-13T21:44:42.255Z,88.60
2017-08-13T21:47:31.317Z,89.10
2017-08-13T21:50:02.577Z,89.40
2017-08-13T21:52:46.242Z,89.40
2017-08-13T21:55:16.012Z,89.20
2017-08-13T21:57:59.545Z,89.40
2017-08-13T22:00:28.232Z,89.80
2017-08-13T22:02:59.481Z,90.00
2017-08-13T22:05:39.199Z,90.20
2017-08-13T22:08:07.885Z,90.30
2017-08-13T22:10:37.456Z,90.40
2017-08-13T22:13:17.081Z,90.40
2017-08-13T22:15:46.048Z,90.40
2017-08-13T22:18:14.368Z,90.40
2017-08-13T22:20:46.085Z,90.50
2017-08-13T22:23:18.254Z,90.70
2017-08-13T22:25:58.042Z,90.70
2017-08-13T22:28:29.497Z,90.70
2017-08-13T22:30:58.761Z,90.80
2017-08-13T22:33:31.281Z,91.00
2017-08-13T22:36:06.771Z,91.00
2017-08-13T22:38:38.735Z,91.10
2017-08-13T22:41:11.337Z,91.20
2017-08-13T22:43:44.076Z,91.20
2017-08-13T22:49:09.469Z,91.40
2017-08-13T22:51:36.898Z,91.50
2017-08-13T22:54:04.339Z,91.50
2017-08-13T22:56:31.782Z,91.60
2017-08-13T22:58:59.998Z,91.70
2017-08-13T23:01:27.450Z,91.60
2017-08-13T23:03:54.903Z,91.60
2017-08-13T23:06:22.343Z,91.50
2017-08-13T23:08:50.566Z,91.60
2017-08-13T23:11:18.012Z,91.80
2017-08-13T23:13:45.461Z,91.60
2017-08-13T23:16:12.903Z,91.60
2017-08-13T23:18:41.107Z,91.80
2017-08-13T23:21:08.556Z,91.70
2017-08-13T23:23:35.995Z,91.90
2017-08-13T23:26:04.206Z,92.00
2017-08-13T23:28:31.639Z,91.90
2017-08-13T23:30:59.073Z,91.90
2017-08-13T23:33:27.283Z,91.90
2017-08-13T23:42:24.868Z,91.70
2017-08-13T23:47:55.845Z,91.90
2017-08-13T23:50:35.590Z,92.00
2017-08-13T23:53:17.176Z,92.00
